Time,TemperatureF,DewpointF,PressureIn,WindDirection,WindDirectionDegrees,WindSpeedMPH,WindSpeedGustMPH,Humidity,HourlyPrecipIn,Conditions,Clouds,dailyrainin,SoftwareType,DateUTC
2013-05-23 00:00:00,54.5,52.2,29.74,NE,45,0.0,1.0,92,0.00,,,0.00,VWS V14.00,2013-05-23 04:00:00,
2013-05-23 00:01:00,54.5,52.2,29.74,ENE,68,0.0,1.0,92,0.00,,,0.00,VWS V14.00,2013-05-23 04:01:00,
2013-05-23 00:06:00,54.5,52.2,29.74,NNE,22,0.0,1.0,92,0.00,,,0.00,VWS V14.00,2013-05-23 04:06:00,
2013-05-23 00:11:00,54.5,52.2,29.74,NNW,338,0.0,1.0,92,0.00,,,0.00,VWS V14.00,2013-05-23 04:11:00,
2013-05-23 00:16:00,54.5,52.2,29.74,NNE,22,0.0,1.0,92,0.00,,,0.00,VWS V14.00,2013-05-23 04:16:00,
2013-05-23 00:21:00,54.5,52.2,29.74,East,90,0.0,1.0,92,0.00,,,0.00,VWS V14.00,2013-05-23 04:21:00,
2013-05-23 00:26:00,54.7,52.4,29.74,North,0,0.0,1.0,92,0.00,,,0.00,VWS V14.00,2013-05-23 04:26:00,
2013-05-23 00:31:00,54.5,52.2,29.74,North,0,0.0,1.0,92,0.00,,,0.00,VWS V14.00,2013-05-23 04:31:00,
2013-05-23 00:36:00,54.7,52.4,29.74,NNW,338,0.0,1.0,92,0.00,,,0.00,VWS V14.00,2013-05-23 04:36:00,
2013-05-23 00:41:00,54.7,52.7,29.74,NNW,338,0.0,1.0,93,0.00,,,0.00,VWS V14.00,2013-05-23 04:41:00,
2013-05-23 00:46:00,54.7,52.7,29.74,North,0,0.0,1.0,93,0.00,,,0.00,VWS V14.00,2013-05-23 04:46:00,
2013-05-23 00:51:00,54.7,52.7,29.74,WSW,248,0.0,1.0,93,0.00,,,0.00,VWS V14.00,2013-05-23 04:51:00,
2013-05-23 16:44:00,72.9,64.1,29.65,SSW,202,0.0,1.0,74,0.00,,,0.00,VWS V14.00,2013-05-23 20:44:00,
2013-05-23 16:49:00,72.9,64.1,29.65,SSW,202,0.0,1.0,74,0.00,,,0.00,VWS V14.00,2013-05-23 20:49:00,
2013-05-23 16:54:00,72.9,64.1,29.65,SW,225,0.0,1.0,74,0.00,,,0.00,VWS V14.00,2013-05-23 20:54:00,
2013-05-23 16:59:00,72.9,63.3,29.65,SSE,158,3.5,4.5,72,0.00,,,0.00,VWS V14.00,2013-05-23 20:59:00,
2013-05-23 17:04:00,72.7,63.5,29.65,SW,225,2.0,6.9,73,0.00,,,0.00,VWS V14.00,2013-05-23 21:04:00,
2013-05-23 17:09:00,72.9,64.1,29.65,West,270,0.0,1.0,74,0.00,,,0.00,VWS V14.00,2013-05-23 21:09:00,
2013-05-23 17:14:00,72.7,63.5,29.65,NNW,338,2.0,3.0,73,0.00,,,0.00,VWS V14.00,2013-05-23 21:14:00,
2013-05-23 17:19:00,72.7,63.9,29.65,South,180,4.7,5.7,74,0.00,,,0.00,VWS V14.00,2013-05-23 21:19:00,
2013-05-23 17:24:00,72.9,63.7,29.65,NNW,338,0.0,3.0,73,0.00,,,0.00,VWS V14.00,2013-05-23 21:24:00,
2013-05-23 17:29:00,72.9,63.7,29.65,SSE,158,0.0,1.0,73,0.00,,,0.00,VWS V14.00,2013-05-23 21:29:00,
2013-05-23 17:34:00,72.7,63.5,29.65,South,180,0.0,4.5,73,0.00,,,0.00,VWS V14.00,2013-05-23 21:34:00,
2013-05-23 17:39:00,72.5,63.4,29.65,SW,225,3.9,8.0,73,0.00,,,0.00,VWS V14.00,2013-05-23 21:39:00,
2013-05-23 17:44:00,72.3,63.6,29.65,SSW,202,5.1,8.0,74,0.00,,,0.00,VWS V14.00,2013-05-23 21:44:00,
2013-05-23 17:49:00,72.1,63.8,29.65,WSW,248,9.4,10.4,75,0.00,,,0.00,VWS V14.00,2013-05-23 21:49:00,
2013-05-23 17:54:00,72.1,63.4,29.65,South,180,1.6,2.6,74,0.00,,,0.00,VWS V14.00,2013-05-23 21:54:00,
2013-05-23 17:59:00,72.0,63.6,29.65,SSW,202,1.6,2.6,75,0.00,,,0.00,VWS V14.00,2013-05-23 21:59:00,
2013-05-23 18:04:00,71.8,63.4,29.65,ENE,68,10.2,11.2,75,0.00,,,0.00,VWS V14.00,2013-05-23 22:04:00,
2013-05-23 18:09:00,71.6,63.3,29.65,ESE,112,0.0,1.0,75,0.00,,,0.00,VWS V14.00,2013-05-23 22:09:00,
2013-05-23 18:14:00,71.6,63.6,29.65,WSW,248,6.3,7.3,76,0.00,,,0.00,VWS V14.00,2013-05-23 22:14:00,
2013-05-23 18:19:00,71.4,63.5,29.65,SSW,202,0.0,1.0,76,0.00,,,0.00,VWS V14.00,2013-05-23 22:19:00,
2013-05-23 18:24:00,71.2,63.7,29.65,NW,315,0.0,6.5,77,0.00,,,0.00,VWS V14.00,2013-05-23 22:24:00,
2013-05-23 18:29:00,71.2,63.7,29.65,WSW,248,0.0,5.3,77,0.00,,,0.00,VWS V14.00,2013-05-23 22:29:00,
2013-05-23 18:34:00,71.1,63.5,29.65,SSW,202,6.3,7.3,77,0.00,,,0.00,VWS V14.00,2013-05-23 22:34:00,
2013-05-23 18:39:00,71.1,63.5,29.68,SW,225,11.4,12.4,77,0.00,,,0.00,VWS V14.00,2013-05-23 22:39:00,
2013-05-23 18:44:00,71.1,63.5,29.68,SSW,202,6.3,7.3,77,0.00,,,0.00,VWS V14.00,2013-05-23 22:44:00,
2013-05-23 18:49:00,70.9,63.3,29.68,SW,225,1.6,2.6,77,0.00,,,0.00,VWS V14.00,2013-05-23 22:49:00,
2013-05-23 18:54:00,70.9,63.3,29.68,West,270,5.1,6.1,77,0.00,,,0.00,VWS V14.00,2013-05-23 22:54:00,
2013-05-23 18:59:00,70.9,63.0,29.68,SSW,202,5.1,6.1,76,0.00,,,0.00,VWS V14.00,2013-05-23 22:59:00,
2013-05-23 19:04:00,70.9,63.0,29.68,SW,225,7.4,8.4,76,0.00,,,0.00,VWS V14.00,2013-05-23 23:04:00,
2013-05-23 19:09:00,70.9,63.0,29.65,SW,225,9.4,10.4,76,0.00,,,0.00,VWS V14.00,2013-05-23 23:09:00,
2013-05-23 19:14:00,70.7,63.1,29.65,SSW,202,8.6,9.6,77,0.00,,,0.00,VWS V14.00,2013-05-23 23:14:00,
2013-05-23 19:19:00,70.7,63.1,29.65,WNW,292,0.0,5.7,77,0.00,,,0.00,VWS V14.00,2013-05-23 23:19:00,
2013-05-23 19:24:00,70.5,63.0,29.65,WSW,248,2.0,3.0,77,0.00,,,0.00,VWS V14.00,2013-05-23 23:24:00,
2013-05-23 19:29:00,70.5,62.6,29.68,SW,225,6.3,7.3,76,0.00,,,0.00,VWS V14.00,2013-05-23 23:29:00,
2013-05-23 19:34:00,70.3,62.4,29.68,SSW,202,7.4,8.4,76,0.00,,,0.00,VWS V14.00,2013-05-23 23:34:00,
2013-05-23 19:39:00,70.3,62.4,29.68,SW,225,6.7,7.7,76,0.00,,,0.00,VWS V14.00,2013-05-23 23:39:00,
2013-05-23 19:44:00,70.2,62.6,29.65,North,0,0.0,1.0,77,0.00,,,0.00,VWS V14.00,2013-05-23 23:44:00,
2013-05-23 19:49:00,70.0,62.5,29.65,WSW,248,0.0,1.0,77,0.00,,,0.00,VWS V14.00,2013-05-23 23:49:00,
2013-05-23 19:54:00,70.0,62.5,29.65,WSW,248,0.0,1.0,77,0.00,,,0.00,VWS V14.00,2013-05-23 23:54:00,
2013-05-23 19:59:00,70.0,62.5,29.65,WSW,248,0.0,6.5,77,0.00,,,0.00,VWS V14.00,2013-05-23 23:59:00,
2013-05-23 20:04:00,69.8,62.3,29.65,SSW,202,6.3,7.3,77,0.00,,,0.00,VWS V14.00,2013-05-24 00:04:00,
2013-05-23 20:09:00,69.8,62.3,29.65,SW,225,8.2,9.2,77,0.00,,,0.00,VWS V14.00,2013-05-24 00:09:00,
2013-05-23 20:14:00,69.6,62.5,29.65,SE,135,2.3,3.3,78,0.00,,,0.00,VWS V14.00,2013-05-24 00:14:00,
2013-05-23 20:19:00,69.6,62.1,29.65,SSW,202,10.2,11.2,77,0.00,,,0.00,VWS V14.00,2013-05-24 00:19:00,
2013-05-23 20:24:00,69.6,62.1,29.65,SSW,202,8.6,9.6,77,0.00,,,0.00,VWS V14.00,2013-05-24 00:24:00,
2013-05-23 20:29:00,69.6,62.1,29.65,WSW,248,2.7,3.7,77,0.00,,,0.00,VWS V14.00,2013-05-24 00:29:00,
2013-05-23 20:34:00,69.6,62.1,29.65,ENE,68,1.6,2.6,77,0.00,,,0.00,VWS V14.00,2013-05-24 00:34:00,
2013-05-23 20:39:00,69.4,62.3,29.65,West,270,0.0,1.0,78,0.00,,,0.00,VWS V14.00,2013-05-24 00:39:00,
2013-05-23 20:44:00,69.3,62.1,29.65,SW,225,0.0,1.0,78,0.00,,,0.00,VWS V14.00,2013-05-24 00:44:00,
2013-05-23 20:49:00,69.1,61.9,29.65,West,270,12.5,13.5,78,0.00,,,0.00,VWS V14.00,2013-05-24 00:49:00,
2013-05-23 20:54:00,69.1,61.9,29.65,West,270,0.0,1.0,78,0.00,,,0.00,VWS V14.00,2013-05-24 00:54:00,
2013-05-23 20:59:00,68.9,61.8,29.65,NW,315,7.0,8.0,78,0.00,,,0.00,VWS V14.00,2013-05-24 00:59:00,
2013-05-23 21:04:00,68.9,61.8,29.65,SW,225,0.0,1.0,78,0.00,,,0.00,VWS V14.00,2013-05-24 01:04:00,
2013-05-23 21:09:00,68.7,61.6,29.65,SW,225,6.3,7.3,78,0.00,,,0.00,VWS V14.00,2013-05-24 01:09:00,
2013-05-23 21:14:00,68.7,61.6,29.68,WSW,248,6.3,7.3,78,0.00,,,0.00,VWS V14.00,2013-05-24 01:14:00,
2013-05-23 21:19:00,68.7,62.0,29.68,West,270,2.0,3.0,79,0.00,,,0.00,VWS V14.00,2013-05-24 01:19:00,
2013-05-23 21:24:00,68.5,61.8,29.68,SW,225,9.8,10.8,79,0.00,,,0.00,VWS V14.00,2013-05-24 01:24:00,
2013-05-23 21:29:00,68.5,61.8,29.65,NW,315,0.0,4.9,79,0.00,,,0.00,VWS V14.00,2013-05-24 01:29:00,
2013-05-23 21:34:00,68.5,61.8,29.65,West,270,2.7,3.7,79,0.00,,,0.00,VWS V14.00,2013-05-24 01:34:00,
2013-05-23 21:39:00,68.5,61.8,29.65,WSW,248,4.7,5.7,79,0.00,,,0.00,VWS V14.00,2013-05-24 01:39:00,
2013-05-23 21:44:00,68.4,61.6,29.65,SW,225,11.4,12.4,79,0.00,,,0.00,VWS V14.00,2013-05-24 01:44:00,
2013-05-23 21:49:00,68.4,61.6,29.65,SW,225,0.0,1.0,79,0.00,,,0.00,VWS V14.00,2013-05-24 01:49:00,
2013-05-23 21:54:00,68.2,61.8,29.65,WSW,248,0.0,6.1,80,0.00,,,0.00,VWS V14.00,2013-05-24 01:54:00,
2013-05-23 21:58:00,68.2,61.8,29.65,North,0,0.0,5.7,80,0.00,,,0.00,VWS V14.00,2013-05-24 01:58:00,
2013-05-23 22:03:00,68.0,61.6,29.65,WSW,248,11.4,12.4,80,0.00,,,0.00,VWS V14.00,2013-05-24 02:03:00,
2013-05-23 22:08:00,67.8,61.8,29.65,SSW,202,0.0,4.5,81,0.00,,,0.00,VWS V14.00,2013-05-24 02:08:00,
2013-05-23 22:13:00,67.8,62.1,29.65,NE,45,0.0,5.3,82,0.00,,,0.00,VWS V14.00,2013-05-24 02:13:00,
2013-05-23 22:18:00,67.6,62.0,29.65,SW,225,6.7,7.7,82,0.00,,,0.00,VWS V14.00,2013-05-24 02:18:00,
2013-05-23 22:23:00,67.5,61.8,29.65,North,0,7.0,8.0,82,0.00,,,0.00,VWS V14.00,2013-05-24 02:23:00,
2013-05-23 22:28:00,67.3,61.6,29.65,West,270,7.4,8.4,82,0.00,,,0.00,VWS V14.00,2013-05-24 02:28:00,
2013-05-23 22:33:00,67.3,62.3,29.65,WNW,292,0.0,2.6,84,0.00,,,0.00,VWS V14.00,2013-05-24 02:33:00,
2013-05-23 22:38:00,67.1,62.5,29.65,NW,315,0.0,12.4,85,0.00,,,0.00,VWS V14.00,2013-05-24 02:38:00,
2013-05-23 22:43:00,67.1,62.5,29.65,NW,315,1.6,2.6,85,0.00,,,0.00,VWS V14.00,2013-05-24 02:43:00,
2013-05-23 22:48:00,66.9,62.3,29.65,WSW,248,5.5,6.5,85,0.00,,,0.00,VWS V14.00,2013-05-24 02:48:00,
2013-05-23 22:53:00,66.7,62.1,29.65,SW,225,3.5,5.7,85,0.00,,,0.00,VWS V14.00,2013-05-24 02:53:00,
2013-05-23 22:58:00,66.7,62.8,29.62,SW,225,1.6,6.5,87,0.00,,,0.00,VWS V14.00,2013-05-24 02:58:00,
2013-05-23 23:03:00,66.6,62.6,29.62,WSW,248,2.0,4.5,87,0.00,,,0.00,VWS V14.00,2013-05-24 03:03:00,
2013-05-23 23:08:00,66.6,62.6,29.62,SW,225,0.0,1.0,87,0.00,,,0.00,VWS V14.00,2013-05-24 03:08:00,
2013-05-23 23:13:00,66.4,62.4,29.62,NE,45,0.0,1.0,87,0.00,,,0.00,VWS V14.00,2013-05-24 03:13:00,
2013-05-23 23:18:00,66.4,62.7,29.62,NNW,338,0.0,1.0,88,0.00,,,0.00,VWS V14.00,2013-05-24 03:18:00,
2013-05-23 23:23:00,66.4,62.7,29.62,SW,225,0.0,1.0,88,0.00,,,0.00,VWS V14.00,2013-05-24 03:23:00,
2013-05-23 23:28:00,66.4,62.7,29.62,WSW,248,0.0,1.0,88,0.00,,,0.00,VWS V14.00,2013-05-24 03:28:00,
2013-05-23 23:33:00,66.4,62.7,29.62,SSW,202,0.0,1.0,88,0.00,,,0.00,VWS V14.00,2013-05-24 03:33:00,
2013-05-23 23:38:00,66.4,62.7,29.62,SSW,202,0.0,1.0,88,0.00,,,0.00,VWS V14.00,2013-05-24 03:38:00,
2013-05-23 23:43:00,66.4,63.0,29.62,WSW,248,1.6,2.6,89,0.00,,,0.00,VWS V14.00,2013-05-24 03:43:00,
2013-05-23 23:48:00,66.2,62.9,29.62,SW,225,0.0,1.0,89,0.00,,,0.00,VWS V14.00,2013-05-24 03:48:00,
2013-05-23 23:53:00,66.2,63.2,29.62,South,180,1.6,3.0,90,0.00,,,0.00,VWS V14.00,2013-05-24 03:53:00,
2013-05-23 23:58:00,66.4,63.4,29.62,West,270,21.1,22.1,90,0.00,,,0.00,VWS V14.00,2013-05-24 03:58:00,